sensor_id;sensor_type;location;lat;lon;timestamp;P1;durP1;ratioP1;P2;durP2;ratioP2
25359;SDS011;13311;51.386;0.016;2023-12-04T00:04:55;11.23;;;5.47;;
25359;SDS011;13311;51.386;0.016;2023-12-04T00:09:56;10.65;;;5.57;;
25359;SDS011;13311;51.386;0.016;2023-12-04T00:14:57;12.55;;;5.47;;
25359;SDS011;13311;51.386;0.016;2023-12-04T00:19:57;16.58;;;6.35;;
25359;SDS011;13311;51.386;0.016;2023-12-04T00:24:58;14.68;;;5.95;;
25359;SDS011;13311;51.386;0.016;2023-12-04T00:29:59;12.25;;;5.85;;
25359;SDS011;13311;51.386;0.016;2023-12-04T00:35:00;13.90;;;6.00;;
25359;SDS011;13311;51.386;0.016;2023-12-04T00:40:00;13.02;;;5.75;;
25359;SDS011;13311;51.386;0.016;2023-12-04T00:45:02;9.52;;;5.72;;
25359;SDS011;13311;51.386;0.016;2023-12-04T00:50:04;9.20;;;4.82;;
25359;SDS011;13311;51.386;0.016;2023-12-04T00:55:05;13.20;;;4.32;;
25359;SDS011;13311;51.386;0.016;2023-12-04T01:00:06;9.43;;;4.47;;
25359;SDS011;13311;51.386;0.016;2023-12-04T01:05:08;10.75;;;4.60;;
25359;SDS011;13311;51.386;0.016;2023-12-04T01:10:09;9.10;;;4.10;;
25359;SDS011;13311;51.386;0.016;2023-12-04T01:15:09;14.68;;;4.90;;
25359;SDS011;13311;51.386;0.016;2023-12-04T01:20:10;8.85;;;4.28;;
25359;SDS011;13311;51.386;0.016;2023-12-04T01:25:11;9.73;;;4.38;;
25359;SDS011;13311;51.386;0.016;2023-12-04T01:30:12;9.75;;;4.40;;
25359;SDS011;13311;51.386;0.016;2023-12-04T01:35:14;11.25;;;4.63;;
25359;SDS011;13311;51.386;0.016;2023-12-04T01:40:14;11.30;;;4.15;;
25359;SDS011;13311;51.386;0.016;2023-12-04T01:45:15;8.23;;;3.97;;
25359;SDS011;13311;51.386;0.016;2023-12-04T01:50:16;9.85;;;4.22;;
25359;SDS011;13311;51.386;0.016;2023-12-04T01:55:17;10.57;;;3.83;;
25359;SDS011;13311;51.386;0.016;2023-12-04T02:00:18;8.57;;;3.17;;
25359;SDS011;13311;51.386;0.016;2023-12-04T02:05:21;11.63;;;4.15;;
25359;SDS011;13311;51.386;0.016;2023-12-04T02:10:22;10.75;;;3.45;;
25359;SDS011;13311;51.386;0.016;2023-12-04T02:15:23;10.82;;;3.60;;
25359;SDS011;13311;51.386;0.016;2023-12-04T02:20:33;6.70;;;3.33;;
25359;SDS011;13311;51.386;0.016;2023-12-04T02:25:34;5.20;;;2.30;;
25359;SDS011;13311;51.386;0.016;2023-12-04T02:30:35;10.27;;;3.28;;
25359;SDS011;13311;51.386;0.016;2023-12-04T02:35:38;5.50;;;3.00;;
25359;SDS011;13311;51.386;0.016;2023-12-04T02:40:40;9.85;;;3.92;;
25359;SDS011;13311;51.386;0.016;2023-12-04T02:45:41;7.97;;;2.53;;
25359;SDS011;13311;51.386;0.016;2023-12-04T02:50:42;5.82;;;2.65;;
25359;SDS011;13311;51.386;0.016;2023-12-04T02:55:42;4.68;;;2.30;;
25359;SDS011;13311;51.386;0.016;2023-12-04T03:00:43;5.32;;;2.17;;
25359;SDS011;13311;51.386;0.016;2023-12-04T03:05:44;7.68;;;2.85;;
25359;SDS011;13311;51.386;0.016;2023-12-04T03:10:45;10.48;;;2.10;;
25359;SDS011;13311;51.386;0.016;2023-12-04T03:15:46;5.13;;;1.80;;
25359;SDS011;13311;51.386;0.016;2023-12-04T03:20:46;8.82;;;2.38;;
25359;SDS011;13311;51.386;0.016;2023-12-04T03:25:47;6.35;;;2.05;;
25359;SDS011;13311;51.386;0.016;2023-12-04T03:30:48;7.70;;;2.08;;
25359;SDS011;13311;51.386;0.016;2023-12-04T03:35:49;5.50;;;1.88;;
25359;SDS011;13311;51.386;0.016;2023-12-04T03:40:49;7.45;;;1.95;;
25359;SDS011;13311;51.386;0.016;2023-12-04T03:45:50;8.77;;;1.52;;
25359;SDS011;13311;51.386;0.016;2023-12-04T03:50:51;2.70;;;1.40;;
25359;SDS011;13311;51.386;0.016;2023-12-04T03:55:52;4.47;;;1.65;;
25359;SDS011;13311;51.386;0.016;2023-12-04T04:00:52;6.90;;;1.88;;
25359;SDS011;13311;51.386;0.016;2023-12-04T04:05:53;3.58;;;2.05;;
25359;SDS011;13311;51.386;0.016;2023-12-04T04:10:54;9.43;;;2.28;;
25359;SDS011;13311;51.386;0.016;2023-12-04T04:15:55;4.00;;;1.80;;
25359;SDS011;13311;51.386;0.016;2023-12-04T04:20:55;6.60;;;1.90;;
25359;SDS011;13311;51.386;0.016;2023-12-04T04:25:56;6.57;;;2.38;;
25359;SDS011;13311;51.386;0.016;2023-12-04T04:30:57;4.88;;;2.40;;
25359;SDS011;13311;51.386;0.016;2023-12-04T04:35:57;3.90;;;2.50;;
25359;SDS011;13311;51.386;0.016;2023-12-04T04:40:58;8.63;;;2.72;;
25359;SDS011;13311;51.386;0.016;2023-12-04T04:45:59;6.65;;;1.83;;
25359;SDS011;13311;51.386;0.016;2023-12-04T04:51:00;7.35;;;2.08;;
25359;SDS011;13311;51.386;0.016;2023-12-04T04:56:00;5.93;;;2.25;;
25359;SDS011;13311;51.386;0.016;2023-12-04T05:01:01;4.60;;;2.30;;
25359;SDS011;13311;51.386;0.016;2023-12-04T05:06:02;5.00;;;2.15;;
25359;SDS011;13311;51.386;0.016;2023-12-04T05:11:04;5.25;;;2.60;;
25359;SDS011;13311;51.386;0.016;2023-12-04T05:16:05;5.32;;;2.72;;
25359;SDS011;13311;51.386;0.016;2023-12-04T05:21:09;6.65;;;2.58;;
25359;SDS011;13311;51.386;0.016;2023-12-04T05:26:10;3.38;;;1.80;;
25359;SDS011;13311;51.386;0.016;2023-12-04T05:31:11;9.20;;;2.50;;
25359;SDS011;13311;51.386;0.016;2023-12-04T05:36:12;8.10;;;2.10;;
25359;SDS011;13311;51.386;0.016;2023-12-04T05:41:12;6.55;;;2.22;;
25359;SDS011;13311;51.386;0.016;2023-12-04T05:46:13;3.75;;;1.55;;
25359;SDS011;13311;51.386;0.016;2023-12-04T05:51:14;3.83;;;1.60;;
25359;SDS011;13311;51.386;0.016;2023-12-04T05:56:15;6.43;;;1.80;;
25359;SDS011;13311;51.386;0.016;2023-12-04T06:01:16;5.90;;;1.88;;
25359;SDS011;13311;51.386;0.016;2023-12-04T06:06:16;4.68;;;1.80;;
25359;SDS011;13311;51.386;0.016;2023-12-04T06:11:17;5.97;;;1.85;;
25359;SDS011;13311;51.386;0.016;2023-12-04T06:16:18;7.25;;;1.52;;
25359;SDS011;13311;51.386;0.016;2023-12-04T06:21:19;5.38;;;1.90;;
25359;SDS011;13311;51.386;0.016;2023-12-04T06:26:20;2.58;;;1.40;;
25359;SDS011;13311;51.386;0.016;2023-12-04T06:31:21;4.28;;;1.50;;
25359;SDS011;13311;51.386;0.016;2023-12-04T06:36:22;3.75;;;1.50;;
25359;SDS011;13311;51.386;0.016;2023-12-04T06:41:24;2.40;;;1.58;;
25359;SDS011;13311;51.386;0.016;2023-12-04T06:46:27;3.03;;;1.83;;
25359;SDS011;13311;51.386;0.016;2023-12-04T06:51:30;3.95;;;1.40;;
25359;SDS011;13311;51.386;0.016;2023-12-04T06:56:31;3.08;;;1.65;;
25359;SDS011;13311;51.386;0.016;2023-12-04T07:01:32;4.57;;;1.50;;
25359;SDS011;13311;51.386;0.016;2023-12-04T07:06:32;4.43;;;2.10;;
25359;SDS011;13311;51.386;0.016;2023-12-04T07:11:33;5.20;;;1.95;;
25359;SDS011;13311;51.386;0.016;2023-12-04T07:16:43;3.40;;;2.10;;
25359;SDS011;13311;51.386;0.016;2023-12-04T07:21:44;4.32;;;1.95;;
25359;SDS011;13311;51.386;0.016;2023-12-04T07:26:44;5.65;;;2.08;;
25359;SDS011;13311;51.386;0.016;2023-12-04T07:31:45;4.88;;;1.95;;
25359;SDS011;13311;51.386;0.016;2023-12-04T07:36:46;4.97;;;1.90;;
25359;SDS011;13311;51.386;0.016;2023-12-04T07:41:48;5.43;;;2.00;;
25359;SDS011;13311;51.386;0.016;2023-12-04T07:46:48;4.18;;;2.30;;
25359;SDS011;13311;51.386;0.016;2023-12-04T07:51:49;3.65;;;2.00;;
25359;SDS011;13311;51.386;0.016;2023-12-04T07:56:50;3.95;;;2.22;;
25359;SDS011;13311;51.386;0.016;2023-12-04T08:01:51;5.22;;;2.20;;
25359;SDS011;13311;51.386;0.016;2023-12-04T08:06:52;5.85;;;2.03;;
25359;SDS011;13311;51.386;0.016;2023-12-04T08:11:52;4.75;;;2.08;;
25359;SDS011;13311;51.386;0.016;2023-12-04T08:16:53;4.47;;;2.13;;
25359;SDS011;13311;51.386;0.016;2023-12-04T08:21:54;4.45;;;1.80;;
25359;SDS011;13311;51.386;0.016;2023-12-04T08:26:56;3.63;;;1.73;;
25359;SDS011;13311;51.386;0.016;2023-12-04T08:31:57;2.92;;;2.15;;
25359;SDS011;13311;51.386;0.016;2023-12-04T08:36:58;4.80;;;2.05;;
25359;SDS011;13311;51.386;0.016;2023-12-04T08:41:59;2.83;;;2.20;;
25359;SDS011;13311;51.386;0.016;2023-12-04T08:46:59;4.57;;;2.15;;
25359;SDS011;13311;51.386;0.016;2023-12-04T08:52:00;3.30;;;1.75;;
25359;SDS011;13311;51.386;0.016;2023-12-04T08:57:01;2.20;;;1.55;;
25359;SDS011;13311;51.386;0.016;2023-12-04T09:02:02;4.35;;;1.88;;
25359;SDS011;13311;51.386;0.016;2023-12-04T09:07:05;7.75;;;2.47;;
25359;SDS011;13311;51.386;0.016;2023-12-04T09:12:06;2.50;;;1.60;;
25359;SDS011;13311;51.386;0.016;2023-12-04T09:17:08;4.70;;;2.10;;
25359;SDS011;13311;51.386;0.016;2023-12-04T09:22:10;4.18;;;2.17;;
25359;SDS011;13311;51.386;0.016;2023-12-04T09:27:10;3.75;;;2.15;;
25359;SDS011;13311;51.386;0.016;2023-12-04T09:32:11;2.67;;;1.83;;
25359;SDS011;13311;51.386;0.016;2023-12-04T09:37:12;4.30;;;2.70;;
25359;SDS011;13311;51.386;0.016;2023-12-04T09:42:13;8.55;;;2.13;;
25359;SDS011;13311;51.386;0.016;2023-12-04T09:47:14;4.80;;;2.67;;
25359;SDS011;13311;51.386;0.016;2023-12-04T09:52:21;5.50;;;2.38;;
25359;SDS011;13311;51.386;0.016;2023-12-04T09:57:23;4.10;;;2.55;;
25359;SDS011;13311;51.386;0.016;2023-12-04T10:02:27;5.60;;;2.35;;
25359;SDS011;13311;51.386;0.016;2023-12-04T10:07:28;4.68;;;2.30;;
25359;SDS011;13311;51.386;0.016;2023-12-04T10:12:29;3.35;;;1.92;;
25359;SDS011;13311;51.386;0.016;2023-12-04T10:17:40;4.78;;;2.28;;
25359;SDS011;13311;51.386;0.016;2023-12-04T10:22:59;3.72;;;2.33;;
25359;SDS011;13311;51.386;0.016;2023-12-04T10:28:07;5.75;;;2.95;;
25359;SDS011;13311;51.386;0.016;2023-12-04T10:33:12;8.40;;;2.63;;
25359;SDS011;13311;51.386;0.016;2023-12-04T10:38:14;9.82;;;2.80;;
25359;SDS011;13311;51.386;0.016;2023-12-04T10:48:20;4.60;;;2.33;;
25359;SDS011;13311;51.386;0.016;2023-12-04T10:53:21;9.32;;;3.45;;
25359;SDS011;13311;51.386;0.016;2023-12-04T10:58:22;8.60;;;3.20;;
25359;SDS011;13311;51.386;0.016;2023-12-04T11:03:34;8.90;;;3.55;;
25359;SDS011;13311;51.386;0.016;2023-12-04T11:08:48;4.80;;;2.63;;
25359;SDS011;13311;51.386;0.016;2023-12-04T11:13:53;7.47;;;2.75;;
25359;SDS011;13311;51.386;0.016;2023-12-04T11:19:02;6.80;;;2.70;;
25359;SDS011;13311;51.386;0.016;2023-12-04T11:24:35;9.10;;;3.72;;
25359;SDS011;13311;51.386;0.016;2023-12-04T11:29:36;8.23;;;3.42;;
25359;SDS011;13311;51.386;0.016;2023-12-04T11:34:46;12.45;;;2.60;;
25359;SDS011;13311;51.386;0.016;2023-12-04T11:39:52;5.80;;;2.53;;
25359;SDS011;13311;51.386;0.016;2023-12-04T11:44:57;5.93;;;2.53;;
25359;SDS011;13311;51.386;0.016;2023-12-04T11:49:58;9.77;;;2.30;;
25359;SDS011;13311;51.386;0.016;2023-12-04T12:00:12;7.47;;;2.80;;
25359;SDS011;13311;51.386;0.016;2023-12-04T12:05:23;8.60;;;3.33;;
25359;SDS011;13311;51.386;0.016;2023-12-04T12:10:25;8.15;;;2.60;;
25359;SDS011;13311;51.386;0.016;2023-12-04T12:15:27;7.38;;;2.95;;
25359;SDS011;13311;51.386;0.016;2023-12-04T12:20:29;6.45;;;2.83;;
25359;SDS011;13311;51.386;0.016;2023-12-04T12:25:30;4.05;;;2.45;;
25359;SDS011;13311;51.386;0.016;2023-12-04T12:30:30;9.25;;;2.83;;
25359;SDS011;13311;51.386;0.016;2023-12-04T12:35:32;5.18;;;3.05;;
25359;SDS011;13311;51.386;0.016;2023-12-04T12:40:33;7.28;;;2.80;;
25359;SDS011;13311;51.386;0.016;2023-12-04T12:45:43;5.28;;;2.45;;
25359;SDS011;13311;51.386;0.016;2023-12-04T12:50:47;6.65;;;4.22;;
25359;SDS011;13311;51.386;0.016;2023-12-04T12:55:48;9.63;;;3.05;;
25359;SDS011;13311;51.386;0.016;2023-12-04T13:00:49;5.82;;;2.53;;
25359;SDS011;13311;51.386;0.016;2023-12-04T13:05:50;7.10;;;2.88;;
25359;SDS011;13311;51.386;0.016;2023-12-04T13:10:50;6.28;;;2.42;;
25359;SDS011;13311;51.386;0.016;2023-12-04T13:15:52;5.70;;;2.83;;
25359;SDS011;13311;51.386;0.016;2023-12-04T13:20:54;6.22;;;2.97;;
25359;SDS011;13311;51.386;0.016;2023-12-04T13:25:57;6.30;;;2.75;;
25359;SDS011;13311;51.386;0.016;2023-12-04T13:30:57;4.50;;;2.55;;
25359;SDS011;13311;51.386;0.016;2023-12-04T13:36:00;4.65;;;2.13;;
25359;SDS011;13311;51.386;0.016;2023-12-04T13:41:01;7.05;;;2.63;;
25359;SDS011;13311;51.386;0.016;2023-12-04T13:46:20;5.57;;;3.17;;
25359;SDS011;13311;51.386;0.016;2023-12-04T13:51:22;4.50;;;2.65;;
25359;SDS011;13311;51.386;0.016;2023-12-04T13:56:23;5.50;;;2.60;;
25359;SDS011;13311;51.386;0.016;2023-12-04T14:01:44;5.80;;;2.15;;
25359;SDS011;13311;51.386;0.016;2023-12-04T14:06:45;6.38;;;2.50;;
25359;SDS011;13311;51.386;0.016;2023-12-04T14:11:46;5.10;;;2.33;;
25359;SDS011;13311;51.386;0.016;2023-12-04T14:16:47;6.32;;;2.65;;
25359;SDS011;13311;51.386;0.016;2023-12-04T14:21:48;6.82;;;2.42;;
25359;SDS011;13311;51.386;0.016;2023-12-04T14:26:50;5.57;;;3.15;;
25359;SDS011;13311;51.386;0.016;2023-12-04T14:31:53;5.22;;;3.65;;
25359;SDS011;13311;51.386;0.016;2023-12-04T14:36:54;10.15;;;3.72;;
25359;SDS011;13311;51.386;0.016;2023-12-04T14:41:55;8.30;;;4.65;;
25359;SDS011;13311;51.386;0.016;2023-12-04T14:46:56;9.38;;;4.90;;
25359;SDS011;13311;51.386;0.016;2023-12-04T14:51:57;7.90;;;4.47;;
25359;SDS011;13311;51.386;0.016;2023-12-04T14:57:00;4.30;;;3.40;;
25359;SDS011;13311;51.386;0.016;2023-12-04T15:02:19;6.35;;;3.50;;
25359;SDS011;13311;51.386;0.016;2023-12-04T15:07:38;4.65;;;3.67;;
25359;SDS011;13311;51.386;0.016;2023-12-04T15:12:55;8.60;;;3.80;;
25359;SDS011;13311;51.386;0.016;2023-12-04T15:18:11;7.50;;;3.42;;
25359;SDS011;13311;51.386;0.016;2023-12-04T15:23:30;7.45;;;3.35;;
25359;SDS011;13311;51.386;0.016;2023-12-04T15:28:31;7.68;;;3.22;;
25359;SDS011;13311;51.386;0.016;2023-12-04T15:33:32;7.13;;;3.67;;
25359;SDS011;13311;51.386;0.016;2023-12-04T15:38:33;9.02;;;4.25;;
25359;SDS011;13311;51.386;0.016;2023-12-04T15:43:33;7.70;;;5.35;;
25359;SDS011;13311;51.386;0.016;2023-12-04T15:48:34;13.25;;;8.60;;
25359;SDS011;13311;51.386;0.016;2023-12-04T15:53:35;13.20;;;9.15;;
25359;SDS011;13311;51.386;0.016;2023-12-04T15:58:36;10.35;;;6.47;;
25359;SDS011;13311;51.386;0.016;2023-12-04T16:03:36;15.30;;;7.00;;
25359;SDS011;13311;51.386;0.016;2023-12-04T16:08:37;11.43;;;7.15;;
25359;SDS011;13311;51.386;0.016;2023-12-04T16:13:38;10.95;;;7.95;;
25359;SDS011;13311;51.386;0.016;2023-12-04T16:18:39;9.73;;;8.02;;
25359;SDS011;13311;51.386;0.016;2023-12-04T16:23:40;17.80;;;9.18;;
25359;SDS011;13311;51.386;0.016;2023-12-04T16:28:40;16.48;;;8.35;;
25359;SDS011;13311;51.386;0.016;2023-12-04T16:33:41;9.73;;;7.93;;
25359;SDS011;13311;51.386;0.016;2023-12-04T16:38:42;14.07;;;7.75;;
25359;SDS011;13311;51.386;0.016;2023-12-04T16:43:43;10.00;;;7.35;;
25359;SDS011;13311;51.386;0.016;2023-12-04T16:48:44;15.10;;;7.60;;
25359;SDS011;13311;51.386;0.016;2023-12-04T16:53:45;8.85;;;6.47;;
25359;SDS011;13311;51.386;0.016;2023-12-04T16:58:45;12.75;;;7.43;;
25359;SDS011;13311;51.386;0.016;2023-12-04T17:03:47;16.10;;;7.15;;
25359;SDS011;13311;51.386;0.016;2023-12-04T17:08:48;8.70;;;6.85;;
25359;SDS011;13311;51.386;0.016;2023-12-04T17:13:49;8.85;;;5.90;;
25359;SDS011;13311;51.386;0.016;2023-12-04T17:18:50;8.57;;;6.25;;
25359;SDS011;13311;51.386;0.016;2023-12-04T17:23:50;6.57;;;5.88;;
25359;SDS011;13311;51.386;0.016;2023-12-04T17:28:51;8.80;;;6.78;;
25359;SDS011;13311;51.386;0.016;2023-12-04T17:33:52;8.77;;;6.97;;
25359;SDS011;13311;51.386;0.016;2023-12-04T17:38:52;7.40;;;6.70;;
25359;SDS011;13311;51.386;0.016;2023-12-04T17:43:53;7.32;;;6.28;;
25359;SDS011;13311;51.386;0.016;2023-12-04T17:48:54;11.43;;;7.57;;
25359;SDS011;13311;51.386;0.016;2023-12-04T17:53:55;8.98;;;6.65;;
25359;SDS011;13311;51.386;0.016;2023-12-04T17:58:55;6.68;;;6.00;;
25359;SDS011;13311;51.386;0.016;2023-12-04T18:03:56;8.77;;;7.63;;
25359;SDS011;13311;51.386;0.016;2023-12-04T18:08:57;7.60;;;6.65;;
25359;SDS011;13311;51.386;0.016;2023-12-04T18:13:58;6.57;;;5.97;;
25359;SDS011;13311;51.386;0.016;2023-12-04T18:18:58;11.75;;;6.97;;
25359;SDS011;13311;51.386;0.016;2023-12-04T18:23:59;7.70;;;6.25;;
25359;SDS011;13311;51.386;0.016;2023-12-04T18:29:00;9.30;;;7.68;;
25359;SDS011;13311;51.386;0.016;2023-12-04T18:34:01;13.68;;;8.18;;
25359;SDS011;13311;51.386;0.016;2023-12-04T18:39:02;11.07;;;9.73;;
25359;SDS011;13311;51.386;0.016;2023-12-04T18:44:04;12.05;;;10.57;;
25359;SDS011;13311;51.386;0.016;2023-12-04T18:49:05;13.75;;;11.52;;
25359;SDS011;13311;51.386;0.016;2023-12-04T18:54:09;13.20;;;11.68;;
25359;SDS011;13311;51.386;0.016;2023-12-04T18:59:10;12.88;;;11.52;;
25359;SDS011;13311;51.386;0.016;2023-12-04T19:04:11;11.43;;;10.20;;
25359;SDS011;13311;51.386;0.016;2023-12-04T19:09:13;13.00;;;10.93;;
25359;SDS011;13311;51.386;0.016;2023-12-04T19:14:13;13.00;;;11.63;;
25359;SDS011;13311;51.386;0.016;2023-12-04T19:19:15;15.02;;;12.85;;
25359;SDS011;13311;51.386;0.016;2023-12-04T19:24:15;16.63;;;13.55;;
25359;SDS011;13311;51.386;0.016;2023-12-04T19:29:16;14.88;;;12.35;;
25359;SDS011;13311;51.386;0.016;2023-12-04T19:34:17;17.77;;;13.30;;
25359;SDS011;13311;51.386;0.016;2023-12-04T19:39:18;14.77;;;13.23;;
25359;SDS011;13311;51.386;0.016;2023-12-04T19:44:19;15.15;;;13.00;;
25359;SDS011;13311;51.386;0.016;2023-12-04T19:49:22;12.32;;;10.15;;
25359;SDS011;13311;51.386;0.016;2023-12-04T19:54:22;9.85;;;8.82;;
25359;SDS011;13311;51.386;0.016;2023-12-04T19:59:23;11.30;;;9.43;;
25359;SDS011;13311;51.386;0.016;2023-12-04T20:04:24;9.98;;;8.65;;
25359;SDS011;13311;51.386;0.016;2023-12-04T20:09:25;12.30;;;9.52;;
25359;SDS011;13311;51.386;0.016;2023-12-04T20:14:25;10.70;;;9.30;;
25359;SDS011;13311;51.386;0.016;2023-12-04T20:19:26;12.50;;;9.55;;
25359;SDS011;13311;51.386;0.016;2023-12-04T20:24:27;14.05;;;11.48;;
25359;SDS011;13311;51.386;0.016;2023-12-04T20:29:27;14.25;;;11.57;;
25359;SDS011;13311;51.386;0.016;2023-12-04T20:34:28;15.10;;;11.20;;
25359;SDS011;13311;51.386;0.016;2023-12-04T20:39:30;15.40;;;12.35;;
25359;SDS011;13311;51.386;0.016;2023-12-04T20:44:31;18.65;;;13.80;;
25359;SDS011;13311;51.386;0.016;2023-12-04T20:49:34;17.77;;;13.90;;
25359;SDS011;13311;51.386;0.016;2023-12-04T20:54:35;15.45;;;13.13;;
25359;SDS011;13311;51.386;0.016;2023-12-04T20:59:35;16.73;;;13.85;;
25359;SDS011;13311;51.386;0.016;2023-12-04T21:04:36;17.92;;;14.40;;
25359;SDS011;13311;51.386;0.016;2023-12-04T21:09:37;20.17;;;15.35;;
25359;SDS011;13311;51.386;0.016;2023-12-04T21:14:37;21.38;;;16.45;;
25359;SDS011;13311;51.386;0.016;2023-12-04T21:19:38;20.83;;;16.02;;
25359;SDS011;13311;51.386;0.016;2023-12-04T21:24:39;20.85;;;16.85;;
25359;SDS011;13311;51.386;0.016;2023-12-04T21:29:40;21.77;;;18.25;;
25359;SDS011;13311;51.386;0.016;2023-12-04T21:34:40;21.10;;;16.38;;
25359;SDS011;13311;51.386;0.016;2023-12-04T21:39:41;22.58;;;18.55;;
25359;SDS011;13311;51.386;0.016;2023-12-04T21:44:42;24.48;;;18.15;;
25359;SDS011;13311;51.386;0.016;2023-12-04T21:49:43;23.33;;;18.83;;
25359;SDS011;13311;51.386;0.016;2023-12-04T21:54:45;24.42;;;17.95;;
25359;SDS011;13311;51.386;0.016;2023-12-04T21:59:46;22.58;;;17.58;;
25359;SDS011;13311;51.386;0.016;2023-12-04T22:04:47;24.15;;;16.92;;
25359;SDS011;13311;51.386;0.016;2023-12-04T22:09:48;22.42;;;16.38;;
25359;SDS011;13311;51.386;0.016;2023-12-04T22:14:49;20.75;;;16.58;;
25359;SDS011;13311;51.386;0.016;2023-12-04T22:19:49;21.00;;;15.75;;
25359;SDS011;13311;51.386;0.016;2023-12-04T22:24:50;22.60;;;15.90;;
25359;SDS011;13311;51.386;0.016;2023-12-04T22:29:51;22.08;;;16.80;;
25359;SDS011;13311;51.386;0.016;2023-12-04T22:34:52;23.63;;;16.17;;
25359;SDS011;13311;51.386;0.016;2023-12-04T22:39:52;20.15;;;16.30;;
25359;SDS011;13311;51.386;0.016;2023-12-04T22:44:53;24.50;;;15.93;;
25359;SDS011;13311;51.386;0.016;2023-12-04T22:49:54;23.13;;;16.92;;
25359;SDS011;13311;51.386;0.016;2023-12-04T22:54:55;21.00;;;14.68;;
25359;SDS011;13311;51.386;0.016;2023-12-04T22:59:55;25.17;;;18.08;;
25359;SDS011;13311;51.386;0.016;2023-12-04T23:04:56;21.45;;;17.13;;
25359;SDS011;13311;51.386;0.016;2023-12-04T23:09:57;21.08;;;15.93;;
25359;SDS011;13311;51.386;0.016;2023-12-04T23:14:58;21.85;;;16.35;;
25359;SDS011;13311;51.386;0.016;2023-12-04T23:19:59;24.13;;;15.20;;
25359;SDS011;13311;51.386;0.016;2023-12-04T23:25:00;23.75;;;16.05;;
25359;SDS011;13311;51.386;0.016;2023-12-04T23:30:01;22.00;;;15.75;;
25359;SDS011;13311;51.386;0.016;2023-12-04T23:35:02;21.52;;;15.27;;
25359;SDS011;13311;51.386;0.016;2023-12-04T23:40:04;18.73;;;14.32;;
25359;SDS011;13311;51.386;0.016;2023-12-04T23:45:05;19.25;;;15.00;;
25359;SDS011;13311;51.386;0.016;2023-12-04T23:50:07;20.73;;;14.80;;
25359;SDS011;13311;51.386;0.016;2023-12-04T23:55:08;20.58;;;15.60;;
